Time;durP1;ratioP1;P1;durP2;ratioP2;P2;SDS_P1;SDS_P2;PMS_P1;PMS_P2;Temp;Humidity;BMP_temperature;BMP_pressure;BME280_temperature;BME280_humidity;BME280_pressure;Samples;Min_cycle;Max_cycle;Signal;HPM_P1;HPM_P2
2021/09/09 00:01:32;;;;;;;20.02;17.08;;;19.40;69.00;;;;;;5028015;28;20464;-72
2021/09/09 00:03:59;;;;;;;20.02;17.25;;;19.40;69.10;;;;;;5012318;28;20050;-70
2021/09/09 00:06:25;;;;;;;22.77;17.17;;;19.40;69.30;;;;;;5024618;28;20484;-70
2021/09/09 00:08:51;;;;;;;23.05;16.67;;;19.30;69.70;;;;;;5025564;28;20059;-70
2021/09/09 00:11:17;;;;;;;19.38;16.48;;;19.30;69.70;;;;;;5024346;28;20084;-73
2021/09/09 00:13:42;;;;;;;21.08;17.45;;;19.30;69.90;;;;;;5027916;28;20025;-73
2021/09/09 00:16:08;;;;;;;18.70;16.15;;;19.30;69.90;;;;;;5024427;28;20448;-70
2021/09/09 00:18:34;;;;;;;21.48;16.92;;;19.30;69.90;;;;;;5022706;28;20040;-70
2021/09/09 00:21:00;;;;;;;20.52;16.13;;;19.20;69.90;;;;;;5026043;28;20701;-70
2021/09/09 00:23:25;;;;;;;18.48;15.73;;;19.30;69.90;;;;;;5023040;28;20042;-70
2021/09/09 00:25:51;;;;;;;20.08;16.45;;;19.20;70.00;;;;;;5028794;28;20040;-71
2021/09/09 00:28:17;;;;;;;20.83;16.67;;;19.20;70.20;;;;;;5027259;28;20025;-72
2021/09/09 00:30:42;;;;;;;19.17;15.95;;;19.20;70.10;;;;;;5026165;28;20574;-71
2021/09/09 00:33:09;;;;;;;17.45;15.55;;;19.20;70.20;;;;;;5021721;28;20029;-70
2021/09/09 00:35:36;;;;;;;19.98;15.82;;;19.20;70.20;;;;;;5028136;28;20038;-71
2021/09/09 00:38:02;;;;;;;20.15;16.88;;;19.20;70.30;;;;;;5028107;28;20033;-73
2021/09/09 00:40:29;;;;;;;19.95;16.10;;;19.20;70.40;;;;;;5029765;28;20036;-72
2021/09/09 00:42:55;;;;;;;16.98;15.13;;;19.20;70.40;;;;;;5024545;28;20400;-72
2021/09/09 00:45:20;;;;;;;19.17;16.52;;;19.20;70.50;;;;;;5031203;28;20041;-70
2021/09/09 00:47:46;;;;;;;20.90;17.38;;;19.30;70.50;;;;;;5025123;28;20472;-69
2021/09/09 00:50:12;;;;;;;18.73;16.55;;;19.30;70.60;;;;;;5029696;28;20044;-71
2021/09/09 00:52:43;;;;;;;19.20;16.90;;;19.20;70.60;;;;;;5025290;28;20026;-70
2021/09/09 00:55:09;;;;;;;21.00;16.95;;;19.20;70.80;;;;;;5013270;28;20425;-70
2021/09/09 00:57:35;;;;;;;19.15;17.15;;;19.20;70.80;;;;;;5022382;28;20037;-69
2021/09/09 01:00:01;;;;;;;22.13;17.85;;;19.20;70.80;;;;;;4998469;28;20424;-69
2021/09/09 01:02:26;;;;;;;29.17;18.27;;;19.10;70.90;;;;;;4999559;28;20117;-70
2021/09/09 01:04:53;;;;;;;21.20;18.85;;;19.10;71.00;;;;;;5020869;28;20128;-70
2021/09/09 01:07:19;;;;;;;22.60;19.35;;;19.00;71.20;;;;;;5027566;28;20125;-70
2021/09/09 01:09:44;;;;;;;21.65;17.42;;;18.90;71.80;;;;;;5028916;28;20104;-70
2021/09/09 01:12:10;;;;;;;23.25;18.08;;;18.90;71.90;;;;;;5018083;28;20034;-73
2021/09/09 01:14:36;;;;;;;20.30;18.10;;;18.90;71.90;;;;;;5005286;28;20029;-70
2021/09/09 01:17:03;;;;;;;20.52;18.33;;;18.90;71.90;;;;;;5002673;28;20258;-71
2021/09/09 01:19:30;;;;;;;22.98;19.08;;;18.90;72.10;;;;;;5006507;28;20037;-70
2021/09/09 01:21:55;;;;;;;21.23;18.08;;;18.90;72.20;;;;;;5006221;28;20069;-70
2021/09/09 01:24:22;;;;;;;20.85;17.70;;;18.80;72.20;;;;;;5008241;28;20489;-70
2021/09/09 01:26:55;;;;;;;21.63;18.17;;;18.80;72.30;;;;;;5008126;28;20389;-72
2021/09/09 01:29:24;;;;;;;21.33;18.20;;;18.80;72.40;;;;;;5018871;28;20044;-70
2021/09/09 01:31:51;;;;;;;20.00;17.88;;;18.80;72.60;;;;;;5012348;28;20032;-70
2021/09/09 01:34:17;;;;;;;19.88;17.63;;;18.80;72.70;;;;;;5025870;28;20033;-70
2021/09/09 01:36:44;;;;;;;21.25;17.55;;;18.80;72.80;;;;;;5023011;28;20053;-71
2021/09/09 01:39:09;;;;;;;21.48;18.17;;;18.70;72.70;;;;;;5017911;28;21168;-71
2021/09/09 01:41:35;;;;;;;21.88;18.75;;;18.80;72.70;;;;;;5007256;28;20048;-72
2021/09/09 01:44:01;;;;;;;21.20;18.90;;;18.70;72.90;;;;;;5007632;28;20037;-71
2021/09/09 01:46:27;;;;;;;20.50;18.30;;;18.70;73.30;;;;;;5006053;28;20041;-70
2021/09/09 01:48:54;;;;;;;21.95;18.92;;;18.70;73.30;;;;;;5005455;28;20334;-70
2021/09/09 01:51:20;;;;;;;20.60;17.52;;;18.70;73.40;;;;;;5017072;28;20029;-72
2021/09/09 01:53:45;;;;;;;20.60;18.38;;;18.60;73.50;;;;;;5018049;28;20029;-69
2021/09/09 01:56:11;;;;;;;21.52;18.38;;;18.60;73.70;;;;;;5011202;28;20125;-70
2021/09/09 01:58:36;;;;;;;20.13;17.60;;;18.60;73.80;;;;;;5028831;28;20059;-69
2021/09/09 02:01:02;;;;;;;23.85;19.67;;;18.60;74.00;;;;;;5014249;28;20040;-70
2021/09/09 02:03:28;;;;;;;22.02;19.10;;;18.60;74.10;;;;;;5021721;28;20496;-69
2021/09/09 02:05:54;;;;;;;23.92;20.13;;;18.60;74.20;;;;;;5024184;28;20026;-70
2021/09/09 02:08:19;;;;;;;21.88;19.42;;;18.60;74.20;;;;;;5025626;28;20025;-74
2021/09/09 02:10:45;;;;;;;22.38;18.52;;;18.60;74.30;;;;;;5020706;28;20037;-70
2021/09/09 02:13:11;;;;;;;20.85;18.42;;;18.60;74.40;;;;;;5023532;28;20061;-70
2021/09/09 02:15:36;;;;;;;22.33;19.70;;;18.60;74.50;;;;;;5025079;28;20029;-69
2021/09/09 02:18:02;;;;;;;22.92;19.67;;;18.60;74.60;;;;;;5027779;28;20048;-72
2021/09/09 02:20:29;;;;;;;21.40;19.20;;;18.60;74.70;;;;;;5025007;28;20029;-72
2021/09/09 02:22:55;;;;;;;23.23;19.92;;;18.60;74.80;;;;;;5027510;28;20021;-72
2021/09/09 02:25:21;;;;;;;23.45;19.63;;;18.60;74.80;;;;;;5024037;28;20042;-74
2021/09/09 02:27:46;;;;;;;23.52;20.80;;;18.60;74.90;;;;;;5022336;28;20038;-71
2021/09/09 02:30:12;;;;;;;24.42;20.80;;;18.60;75.00;;;;;;5021771;28;20048;-71
2021/09/09 02:32:38;;;;;;;21.35;19.08;;;18.60;74.90;;;;;;5022804;28;20034;-71
2021/09/09 02:35:05;;;;;;;20.27;18.05;;;18.60;74.90;;;;;;5021381;28;20034;-71
2021/09/09 02:37:30;;;;;;;20.10;17.17;;;18.60;74.90;;;;;;5025337;28;20101;-71
2021/09/09 02:39:56;;;;;;;19.33;17.33;;;18.60;74.90;;;;;;5025962;28;20168;-73
2021/09/09 02:42:22;;;;;;;19.65;15.68;;;18.60;74.80;;;;;;5028350;28;20041;-71
2021/09/09 02:44:47;;;;;;;18.35;15.25;;;18.60;74.70;;;;;;5022273;28;20046;-71
2021/09/09 02:47:13;;;;;;;18.70;14.48;;;18.70;74.70;;;;;;5020886;28;20041;-72
2021/09/09 02:49:39;;;;;;;19.15;14.38;;;18.70;74.60;;;;;;5014519;28;20128;-71
2021/09/09 02:52:05;;;;;;;18.17;14.00;;;18.80;74.60;;;;;;5023631;28;20200;-73
2021/09/09 02:54:30;;;;;;;16.20;14.50;;;18.90;74.50;;;;;;5022216;28;20090;-71
2021/09/09 02:56:56;;;;;;;18.65;14.95;;;18.90;74.40;;;;;;5020294;28;20071;-71
2021/09/09 02:59:22;;;;;;;19.33;14.63;;;19.00;74.90;;;;;;5020207;28;20045;-73
2021/09/09 03:01:47;;;;;;;18.35;14.13;;;19.00;74.80;;;;;;5023113;28;20116;-72
2021/09/09 03:04:13;;;;;;;17.38;13.90;;;19.10;74.70;;;;;;4999733;28;20358;-71
2021/09/09 03:06:39;;;;;;;18.42;14.88;;;19.10;74.60;;;;;;5012941;28;20092;-70
2021/09/09 03:09:05;;;;;;;20.85;14.68;;;19.10;74.70;;;;;;5010815;28;20361;-70
2021/09/09 03:11:30;;;;;;;17.92;13.68;;;19.10;74.70;;;;;;5018287;28;20034;-70
2021/09/09 03:13:56;;;;;;;16.30;13.52;;;19.10;74.50;;;;;;5008629;28;20042;-71
2021/09/09 03:16:22;;;;;;;16.27;13.73;;;19.20;74.40;;;;;;5028150;28;20082;-71
2021/09/09 03:18:47;;;;;;;17.42;13.95;;;19.20;74.50;;;;;;5028194;28;20041;-71
2021/09/09 03:21:13;;;;;;;16.02;13.68;;;19.20;74.60;;;;;;5027561;28;20034;-70
2021/09/09 03:23:39;;;;;;;17.30;14.10;;;19.20;74.70;;;;;;5015799;28;20025;-71
2021/09/09 03:26:04;;;;;;;17.63;14.32;;;19.30;74.80;;;;;;5016017;28;20077;-71
2021/09/09 03:28:30;;;;;;;17.05;14.50;;;19.20;74.80;;;;;;5009498;28;20025;-71
2021/09/09 03:30:56;;;;;;;16.95;14.32;;;19.20;75.00;;;;;;5029865;28;20072;-70
2021/09/09 03:33:21;;;;;;;17.88;14.48;;;19.20;75.20;;;;;;5020589;28;20385;-72
2021/09/09 03:35:47;;;;;;;16.17;13.73;;;19.20;75.30;;;;;;5028603;28;20524;-71
2021/09/09 03:38:13;;;;;;;21.80;15.55;;;19.20;75.40;;;;;;5028718;28;20466;-72
2021/09/09 03:40:39;;;;;;;18.17;14.90;;;19.20;75.90;;;;;;5029047;28;20028;-70
2021/09/09 03:43:04;;;;;;;18.88;15.25;;;19.30;75.60;;;;;;5027876;28;20416;-73
2021/09/09 03:45:30;;;;;;;19.27;15.70;;;19.30;75.80;;;;;;5026404;28;20460;-71
2021/09/09 03:47:56;;;;;;;18.73;15.35;;;19.30;75.80;;;;;;5018999;28;20453;-70
2021/09/09 03:50:22;;;;;;;20.13;15.27;;;19.30;75.80;;;;;;5033191;28;20044;-69
2021/09/09 03:52:47;;;;;;;19.13;15.23;;;19.40;75.80;;;;;;5027230;28;20037;-71
2021/09/09 03:55:13;;;;;;;19.23;15.48;;;19.40;76.00;;;;;;5018810;28;20115;-72
2021/09/09 03:57:39;;;;;;;19.60;15.93;;;19.40;75.80;;;;;;5029747;28;20030;-70
2021/09/09 04:00:06;;;;;;;19.17;15.95;;;19.40;75.90;;;;;;5022570;28;20404;-73
2021/09/09 04:02:32;;;;;;;20.65;16.77;;;19.50;76.00;;;;;;5031692;28;20096;-71
2021/09/09 04:04:58;;;;;;;20.17;16.63;;;19.50;76.10;;;;;;5010682;28;20046;-72
2021/09/09 04:07:24;;;;;;;23.25;16.13;;;19.50;76.00;;;;;;5023424;28;20029;-70
2021/09/09 04:09:50;;;;;;;18.83;16.55;;;19.50;76.20;;;;;;4997925;28;20038;-71
2021/09/09 04:12:15;;;;;;;18.77;16.77;;;19.50;76.10;;;;;;5001596;28;20026;-72
2021/09/09 04:14:41;;;;;;;20.85;16.00;;;19.50;76.10;;;;;;5010887;28;20358;-72
2021/09/09 04:17:07;;;;;;;21.52;17.20;;;19.50;76.10;;;;;;5035696;28;20041;-72
2021/09/09 04:19:33;;;;;;;24.40;17.55;;;19.50;76.30;;;;;;5028483;28;20060;-71
2021/09/09 04:22:01;;;;;;;21.35;17.60;;;19.50;76.50;;;;;;5026942;28;20038;-72
2021/09/09 04:24:28;;;;;;;23.58;18.20;;;19.50;76.70;;;;;;5006813;28;20038;-71
2021/09/09 04:26:53;;;;;;;21.88;17.83;;;19.50;76.60;;;;;;5020842;28;20081;-73
2021/09/09 04:29:19;;;;;;;19.40;17.00;;;19.50;76.80;;;;;;5022014;28;20045;-71
2021/09/09 04:31:44;;;;;;;20.38;17.65;;;19.50;76.90;;;;;;5019347;28;20674;-73
2021/09/09 04:34:10;;;;;;;23.25;19.00;;;19.50;77.10;;;;;;5028535;28;20074;-71
2021/09/09 04:36:36;;;;;;;22.63;18.45;;;19.50;77.30;;;;;;5027487;28;20045;-70
2021/09/09 04:39:02;;;;;;;26.40;20.17;;;19.50;77.60;;;;;;5024081;28;20030;-71
2021/09/09 04:41:28;;;;;;;27.23;19.13;;;19.50;77.60;;;;;;5021626;28;20033;-71
2021/09/09 04:43:53;;;;;;;24.85;20.58;;;19.50;77.90;;;;;;5031006;28;20373;-71
2021/09/09 04:46:19;;;;;;;22.73;19.92;;;19.50;78.10;;;;;;5021353;28;20600;-70
2021/09/09 04:48:45;;;;;;;23.33;20.05;;;19.50;78.30;;;;;;5024598;28;20036;-71
2021/09/09 04:51:11;;;;;;;27.48;20.92;;;19.50;78.50;;;;;;5022459;28;20586;-71
2021/09/09 04:53:36;;;;;;;25.23;21.23;;;19.50;78.30;;;;;;5027229;28;20116;-71
2021/09/09 04:56:02;;;;;;;24.83;20.80;;;19.50;78.50;;;;;;5020917;28;20042;-71
2021/09/09 04:58:28;;;;;;;23.85;21.00;;;19.50;78.80;;;;;;5017480;28;20049;-73
2021/09/09 05:00:54;;;;;;;25.52;21.67;;;19.60;78.70;;;;;;5022720;28;20393;-72
2021/09/09 05:03:20;;;;;;;24.27;21.20;;;19.50;78.80;;;;;;5000886;28;20038;-71
2021/09/09 05:05:46;;;;;;;23.95;20.75;;;19.50;79.10;;;;;;5015790;28;20072;-71
2021/09/09 05:08:12;;;;;;;23.63;20.17;;;19.50;79.20;;;;;;5017544;28;20026;-71
2021/09/09 05:10:37;;;;;;;25.42;20.90;;;19.50;79.40;;;;;;5020803;28;20107;-70
2021/09/09 05:13:03;;;;;;;25.85;21.58;;;19.50;79.50;;;;;;5022683;28;20052;-71
2021/09/09 05:15:29;;;;;;;29.33;21.00;;;19.50;79.50;;;;;;5021476;28;20045;-71
2021/09/09 05:17:55;;;;;;;25.88;22.50;;;19.50;79.40;;;;;;5023822;28;20037;-71
2021/09/09 05:20:20;;;;;;;26.60;21.75;;;19.50;79.70;;;;;;5020384;28;20033;-71
2021/09/09 05:22:47;;;;;;;24.10;21.27;;;19.50;79.90;;;;;;5015784;28;20528;-71
2021/09/09 05:25:12;;;;;;;25.83;21.83;;;19.50;79.90;;;;;;5024670;28;20065;-70
2021/09/09 05:27:38;;;;;;;24.98;21.42;;;19.50;79.90;;;;;;5008401;28;20124;-77
2021/09/09 05:30:05;;;;;;;25.08;22.05;;;19.50;80.00;;;;;;5000847;28;20038;-69
2021/09/09 05:32:32;;;;;;;26.15;22.00;;;19.50;80.40;;;;;;5010689;28;20604;-68
2021/09/09 05:34:58;;;;;;;29.05;22.73;;;19.50;80.20;;;;;;5016650;28;20041;-68
2021/09/09 05:37:24;;;;;;;31.23;23.50;;;19.50;80.30;;;;;;5020133;28;20044;-67
2021/09/09 05:39:50;;;;;;;25.73;22.92;;;19.60;80.20;;;;;;5015187;28;20046;-69
2021/09/09 05:42:16;;;;;;;27.88;22.88;;;19.50;80.30;;;;;;5011261;28;20041;-67
2021/09/09 05:44:41;;;;;;;28.13;22.50;;;19.50;80.50;;;;;;5019983;28;20034;-66
2021/09/09 05:47:08;;;;;;;28.15;23.33;;;19.50;80.80;;;;;;5020910;28;20090;-67
2021/09/09 05:49:35;;;;;;;33.17;25.02;;;19.50;81.00;;;;;;5008458;28;20602;-67
2021/09/09 05:52:01;;;;;;;31.08;23.98;;;19.50;80.90;;;;;;5019032;28;20042;-67
2021/09/09 05:54:26;;;;;;;26.60;23.60;;;19.60;81.00;;;;;;5009356;28;20050;-67
2021/09/09 05:56:52;;;;;;;26.52;23.23;;;19.60;81.20;;;;;;5004843;28;20483;-68
2021/09/09 05:59:18;;;;;;;29.55;24.75;;;19.60;81.40;;;;;;5019635;28;20456;-67
2021/09/09 06:01:45;;;;;;;26.60;22.50;;;19.60;81.40;;;;;;4999441;28;20079;-67
2021/09/09 06:04:13;;;;;;;27.92;22.48;;;19.60;81.60;;;;;;5006765;28;20046;-67
2021/09/09 06:06:39;;;;;;;30.77;25.45;;;19.60;81.80;;;;;;5000717;28;20030;-67
2021/09/09 06:09:05;;;;;;;28.73;23.80;;;19.60;82.00;;;;;;5003660;28;20028;-68
2021/09/09 06:11:30;;;;;;;32.28;26.10;;;19.70;82.30;;;;;;5021911;28;20055;-67
2021/09/09 06:13:56;;;;;;;30.10;24.88;;;19.70;82.30;;;;;;5017280;28;20137;-67
2021/09/09 06:16:22;;;;;;;31.33;24.33;;;19.80;82.20;;;;;;4999298;28;20058;-68
2021/09/09 06:18:48;;;;;;;28.15;24.83;;;19.80;82.30;;;;;;5011464;28;20423;-68
2021/09/09 06:21:13;;;;;;;31.25;25.10;;;20.00;82.30;;;;;;5023076;28;20134;-68
2021/09/09 06:23:39;;;;;;;32.20;26.73;;;20.00;82.10;;;;;;5018168;28;20045;-69
2021/09/09 06:26:05;;;;;;;28.58;25.48;;;20.10;81.80;;;;;;5022714;28;20041;-69
2021/09/09 06:28:30;;;;;;;30.90;25.83;;;20.10;81.90;;;;;;5006956;28;20115;-68
2021/09/09 06:30:56;;;;;;;30.17;24.85;;;20.20;81.80;;;;;;4999433;28;20477;-67
2021/09/09 06:33:22;;;;;;;29.17;24.38;;;20.30;81.70;;;;;;5024813;28;20547;-69
2021/09/09 06:35:47;;;;;;;28.77;24.33;;;20.30;81.60;;;;;;5016621;28;20034;-68
2021/09/09 06:38:13;;;;;;;29.55;25.10;;;20.40;81.40;;;;;;5024838;28;20025;-69
2021/09/09 06:40:39;;;;;;;29.73;24.10;;;20.40;81.30;;;;;;5032612;28;20021;-68
2021/09/09 06:43:05;;;;;;;28.33;24.75;;;20.40;81.20;;;;;;5020714;28;20110;-68
2021/09/09 06:45:31;;;;;;;30.30;24.42;;;20.50;81.10;;;;;;5014583;28;20052;-68
2021/09/09 06:47:57;;;;;;;29.05;24.40;;;20.50;81.10;;;;;;5022998;28;20030;-69
2021/09/09 06:50:23;;;;;;;30.27;24.10;;;20.60;81.30;;;;;;4999530;28;20388;-68
2021/09/09 06:52:48;;;;;;;27.85;22.50;;;20.60;81.00;;;;;;5032827;28;20022;-69
2021/09/09 06:55:14;;;;;;;26.90;23.55;;;20.80;80.80;;;;;;5022737;28;20029;-71
2021/09/09 06:57:40;;;;;;;27.42;21.85;;;21.00;80.20;;;;;;5015883;28;20079;-70
2021/09/09 07:00:06;;;;;;;27.00;22.52;;;21.10;80.10;;;;;;5026658;28;20121;-68
2021/09/09 07:02:31;;;;;;;27.27;21.92;;;21.30;79.70;;;;;;5005960;28;20484;-72
2021/09/09 07:04:57;;;;;;;26.60;20.45;;;21.50;79.10;;;;;;5012887;28;20598;-72
2021/09/09 07:07:23;;;;;;;27.17;20.17;;;21.80;78.10;;;;;;5008395;28;20030;-69
2021/09/09 07:09:48;;;;;;;29.33;21.77;;;21.80;77.80;;;;;;5007008;28;20075;-68
2021/09/09 07:12:14;;;;;;;27.75;21.05;;;21.80;77.50;;;;;;5010947;28;20046;-68
2021/09/09 07:14:40;;;;;;;26.30;20.52;;;21.80;77.80;;;;;;5016481;28;20033;-72
2021/09/09 07:17:06;;;;;;;25.20;20.58;;;22.00;77.80;;;;;;5020728;28;20053;-69
2021/09/09 07:19:32;;;;;;;25.40;20.42;;;22.00;77.50;;;;;;5020806;28;20042;-68
2021/09/09 07:21:58;;;;;;;26.75;20.52;;;22.10;77.50;;;;;;5025055;28;20108;-69
2021/09/09 07:24:23;;;;;;;26.83;20.13;;;22.20;77.30;;;;;;5014038;28;20046;-68
2021/09/09 07:26:49;;;;;;;26.73;19.42;;;22.40;76.60;;;;;;5021709;28;20041;-69
2021/09/09 07:29:15;;;;;;;24.95;18.77;;;22.50;76.80;;;;;;5014059;28;20068;-68
2021/09/09 07:31:42;;;;;;;26.75;19.45;;;22.60;75.90;;;;;;5004684;28;20065;-70
2021/09/09 07:34:09;;;;;;;24.27;19.55;;;22.50;76.10;;;;;;5024663;28;20144;-69
2021/09/09 07:36:34;;;;;;;25.35;19.27;;;22.50;75.60;;;;;;5022958;28;20092;-68
2021/09/09 07:39:01;;;;;;;22.27;18.15;;;22.50;75.80;;;;;;5017704;28;20173;-68
2021/09/09 07:41:27;;;;;;;25.00;19.70;;;22.40;76.30;;;;;;5015129;28;20476;-68
2021/09/09 07:43:52;;;;;;;23.20;19.67;;;22.40;76.30;;;;;;5009057;28;20077;-69
2021/09/09 07:46:18;;;;;;;25.60;20.13;;;22.50;76.70;;;;;;5027128;28;20505;-70
2021/09/09 07:48:44;;;;;;;28.85;21.50;;;22.60;75.80;;;;;;5035117;28;20033;-68
2021/09/09 07:51:09;;;;;;;22.67;19.45;;;22.70;75.60;;;;;;5012884;28;20037;-70
2021/09/09 07:53:35;;;;;;;24.30;20.05;;;22.90;75.20;;;;;;5026104;28;20120;-69
2021/09/09 07:56:03;;;;;;;24.40;18.42;;;23.20;74.70;;;;;;5023787;28;20079;-70
2021/09/09 07:58:29;;;;;;;21.90;17.58;;;23.50;72.90;;;;;;5018490;28;20033;-68
2021/09/09 08:00:54;;;;;;;28.77;22.23;;;23.70;72.30;;;;;;5025066;28;20033;-68
2021/09/09 08:03:20;;;;;;;21.92;17.70;;;23.60;72.00;;;;;;5025055;28;20050;-68
2021/09/09 08:05:46;;;;;;;26.10;19.50;;;23.50;71.60;;;;;;5008668;28;20042;-70
2021/09/09 08:08:11;;;;;;;24.02;20.15;;;23.20;72.30;;;;;;5012035;28;20483;-67
2021/09/09 08:10:37;;;;;;;24.75;19.85;;;23.00;73.50;;;;;;5006205;28;20426;-68
2021/09/09 08:13:03;;;;;;;24.10;19.25;;;22.80;74.20;;;;;;5023833;28;20532;-72
2021/09/09 08:15:29;;;;;;;21.52;16.70;;;22.70;74.40;;;;;;5010331;28;20524;-68
2021/09/09 08:17:54;;;;;;;26.13;17.77;;;22.60;74.70;;;;;;5024073;28;20029;-68
2021/09/09 08:20:20;;;;;;;21.95;17.90;;;22.60;75.20;;;;;;5023060;28;20120;-68
2021/09/09 08:22:46;;;;;;;23.58;17.90;;;22.60;74.80;;;;;;5024028;28;20033;-70
2021/09/09 08:25:12;;;;;;;24.90;18.88;;;22.70;75.00;;;;;;5018106;28;20044;-72
2021/09/09 08:27:38;;;;;;;24.00;18.00;;;23.00;74.00;;;;;;5030069;28;20592;-68
2021/09/09 08:30:05;;;;;;;24.98;18.63;;;23.30;73.60;;;;;;5026500;28;20120;-69
2021/09/09 08:32:31;;;;;;;21.90;16.33;;;23.80;72.10;;;;;;5033975;28;20025;-69
2021/09/09 08:34:57;;;;;;;24.67;16.10;;;24.10;70.70;;;;;;5025195;28;20057;-67
2021/09/09 08:37:24;;;;;;;19.42;14.75;;;24.40;69.90;;;;;;5022815;28;20037;-68
2021/09/09 08:39:50;;;;;;;20.13;15.27;;;24.60;68.60;;;;;;5005208;28;20477;-67
2021/09/09 08:42:16;;;;;;;20.63;14.57;;;24.90;67.10;;;;;;5003641;28;20025;-68
2021/09/09 08:44:42;;;;;;;21.15;14.13;;;24.90;67.30;;;;;;5014119;28;20044;-69
2021/09/09 08:47:09;;;;;;;21.73;14.60;;;25.10;67.00;;;;;;5014798;28;20143;-68
2021/09/09 08:49:35;;;;;;;20.40;13.82;;;25.30;65.70;;;;;;5024508;28;20030;-68
2021/09/09 08:52:03;;;;;;;18.08;14.48;;;25.30;66.20;;;;;;5019713;28;20036;-68
2021/09/09 08:54:29;;;;;;;18.02;13.15;;;25.60;64.40;;;;;;5024098;28;20354;-67
2021/09/09 08:56:55;;;;;;;18.85;13.70;;;25.60;64.50;;;;;;5021975;28;20029;-67
2021/09/09 08:59:21;;;;;;;18.27;13.80;;;25.60;64.60;;;;;;5020751;28;20073;-67
2021/09/09 09:02:10;;;;;;;15.77;12.95;;;25.70;64.00;;;;;;5018478;28;20625;-67
2021/09/09 09:04:37;;;;;;;18.65;12.57;;;25.30;65.50;;;;;;5020801;28;20048;-67
2021/09/09 09:07:05;;;;;;;20.42;12.68;;;25.10;65.80;;;;;;5026495;28;20033;-71
2021/09/09 09:09:36;;;;;;;15.75;11.05;;;25.00;66.70;;;;;;5029081;28;20025;-69
2021/09/09 09:12:10;;;;;;;16.33;11.55;;;25.20;65.80;;;;;;5016778;28;20057;-68
2021/09/09 09:14:36;;;;;;;16.42;10.98;;;25.40;64.70;;;;;;5001158;28;20034;-68
2021/09/09 09:17:05;;;;;;;15.90;11.18;;;25.60;64.50;;;;;;5003857;28;20046;-67
2021/09/09 09:19:38;;;;;;;15.40;10.32;;;25.70;63.30;;;;;;5015608;28;20469;-67
2021/09/09 09:22:13;;;;;;;13.70;9.57;;;25.50;63.20;;;;;;5021073;28;20079;-67
2021/09/09 09:24:49;;;;;;;14.32;9.00;;;25.30;63.80;;;;;;5009931;28;20042;-68
2021/09/09 09:27:20;;;;;;;14.43;9.77;;;25.40;64.60;;;;;;4998696;28;20358;-68
2021/09/09 09:30:08;;;;;;;15.52;9.15;;;25.50;63.80;;;;;;5006414;28;20053;-67
2021/09/09 09:32:34;;;;;;;15.85;8.65;;;25.90;62.90;;;;;;5012313;28;20075;-71
2021/09/09 09:35:17;;;;;;;11.77;7.88;;;26.00;61.20;;;;;;5009690;28;20105;-67
2021/09/09 09:37:54;;;;;;;13.02;8.15;;;25.90;61.60;;;;;;5003337;28;20119;-67
2021/09/09 09:40:42;;;;;;;18.17;12.07;;;26.00;62.20;;;;;;5022299;28;20041;-68
2021/09/09 09:43:10;;;;;;;19.90;12.75;;;26.20;63.20;;;;;;5008738;28;20458;-71
2021/09/09 09:45:46;;;;;;;21.08;12.27;;;26.10;63.00;;;;;;5022618;28;20046;-73
2021/09/09 09:48:35;;;;;;;19.65;12.13;;;25.80;64.20;;;;;;5022504;28;20369;-70
2021/09/09 09:51:02;;;;;;;15.65;10.38;;;26.00;63.80;;;;;;5008291;28;20034;-71
2021/09/09 09:53:29;;;;;;;11.07;7.13;;;26.20;62.90;;;;;;5000555;28;20043;-72
2021/09/09 09:55:55;;;;;;;12.98;7.25;;;26.50;61.00;;;;;;5004588;28;20120;-71
2021/09/09 09:58:20;;;;;;;13.45;7.28;;;26.80;59.70;;;;;;5001972;28;20188;-70
2021/09/09 10:00:46;;;;;;;11.55;6.35;;;26.80;59.50;;;;;;5011662;28;20468;-70
2021/09/09 10:03:13;;;;;;;10.00;5.68;;;27.00;58.00;;;;;;5028449;28;21418;-71
2021/09/09 10:05:40;;;;;;;10.65;5.00;;;27.10;57.80;;;;;;5023948;28;20397;-71
2021/09/09 10:08:07;;;;;;;9.88;5.55;;;27.30;57.20;;;;;;5013270;28;20116;-72
2021/09/09 10:10:34;;;;;;;9.73;5.25;;;27.30;56.70;;;;;;5029311;28;20041;-72
2021/09/09 10:13:00;;;;;;;12.13;6.63;;;27.50;57.40;;;;;;5026656;28;20040;-71
2021/09/09 10:15:26;;;;;;;10.25;5.30;;;27.70;55.90;;;;;;5024256;28;20046;-71
2021/09/09 10:17:53;;;;;;;8.20;4.60;;;27.80;56.40;;;;;;5019183;28;20037;-71
2021/09/09 10:20:39;;;;;;;11.52;5.78;;;27.70;54.50;;;;;;5029845;28;20082;-71
2021/09/09 10:23:07;;;;;;;9.32;5.70;;;27.50;55.40;;;;;;5018013;28;20033;-71
2021/09/09 10:25:48;;;;;;;9.13;5.25;;;27.70;54.90;;;;;;5023599;28;20072;-71
2021/09/09 10:28:32;;;;;;;12.45;6.18;;;27.60;55.60;;;;;;5020409;28;20034;-71
2021/09/09 10:31:05;;;;;;;11.25;6.47;;;27.80;55.00;;;;;;5018618;28;20037;-73
2021/09/09 10:33:31;;;;;;;12.82;6.57;;;28.10;55.20;;;;;;5012643;28;20041;-71
2021/09/09 10:35:57;;;;;;;13.10;6.00;;;28.20;54.10;;;;;;5010042;28;20030;-71
2021/09/09 10:38:34;;;;;;;13.68;6.32;;;28.20;54.40;;;;;;5018206;28;20033;-73
2021/09/09 10:41:02;;;;;;;9.43;5.30;;;28.20;53.80;;;;;;5020658;28;20035;-76
2021/09/09 10:43:27;;;;;;;9.65;5.03;;;28.30;53.40;;;;;;5002371;28;20075;-75
2021/09/09 10:46:01;;;;;;;8.15;3.15;;;28.50;52.20;;;;;;5019444;28;20057;-70
2021/09/09 10:48:29;;;;;;;7.45;3.50;;;28.40;49.90;;;;;;5016551;28;20042;-71
2021/09/09 10:51:05;;;;;;;7.30;3.60;;;28.00;50.40;;;;;;5018621;28;20034;-72
2021/09/09 10:53:33;;;;;;;8.52;4.05;;;27.90;51.00;;;;;;5002756;28;20601;-70
2021/09/09 10:56:08;;;;;;;10.10;4.20;;;28.10;50.80;;;;;;5013082;28;20385;-71
2021/09/09 10:58:34;;;;;;;8.88;4.00;;;27.70;51.80;;;;;;4994886;28;20046;-71
2021/09/09 11:01:05;;;;;;;9.35;4.25;;;27.60;52.70;;;;;;5029650;28;20038;-73
2021/09/09 11:03:39;;;;;;;7.57;4.15;;;28.00;52.90;;;;;;4996625;28;20363;-70
2021/09/09 11:06:15;;;;;;;12.20;4.07;;;28.10;51.80;;;;;;5008580;28;20501;-70
2021/09/09 11:08:43;;;;;;;8.15;3.50;;;28.50;51.10;;;;;;5000086;28;20037;-71
2021/09/09 11:11:14;;;;;;;9.88;4.00;;;28.70;51.00;;;;;;5012030;28;20041;-73
2021/09/09 11:13:40;;;;;;;8.82;3.50;;;28.90;49.30;;;;;;5010146;28;20038;-71
2021/09/09 11:16:29;;;;;;;9.20;4.05;;;29.00;49.20;;;;;;5003465;28;20448;-72
2021/09/09 11:18:54;;;;;;;7.15;3.65;;;29.00;49.40;;;;;;5018217;28;20057;-71
2021/09/09 11:21:37;;;;;;;8.30;3.55;;;29.10;49.20;;;;;;5006069;28;20147;-72
2021/09/09 11:24:10;;;;;;;6.03;2.87;;;29.50;49.00;;;;;;5015469;28;20408;-71
2021/09/09 11:26:37;;;;;;;6.18;3.38;;;29.60;47.90;;;;;;5012798;28;20051;-72
2021/09/09 11:29:04;;;;;;;6.65;3.33;;;29.60;46.80;;;;;;5017917;28;20049;-72
2021/09/09 11:31:32;;;;;;;7.40;3.08;;;29.60;47.30;;;;;;5025288;28;20033;-74
2021/09/09 11:34:02;;;;;;;7.45;3.40;;;29.30;48.00;;;;;;5027006;28;20037;-71
2021/09/09 11:36:39;;;;;;;7.95;3.83;;;28.70;48.10;;;;;;5000704;28;20033;-72
2021/09/09 11:39:07;;;;;;;7.43;3.75;;;28.40;50.00;;;;;;5003814;28;20385;-72
2021/09/09 11:41:34;;;;;;;7.35;3.40;;;28.30;51.00;;;;;;5005708;28;20449;-73
2021/09/09 11:44:03;;;;;;;7.80;4.30;;;28.20;50.80;;;;;;5007203;28;20049;-72
2021/09/09 11:46:30;;;;;;;9.93;4.82;;;28.50;51.40;;;;;;5009854;28;20480;-74
2021/09/09 11:49:00;;;;;;;8.43;4.45;;;28.30;52.20;;;;;;5015376;28;20041;-73
2021/09/09 11:51:45;;;;;;;8.88;4.55;;;28.30;50.80;;;;;;5025425;28;20381;-74
2021/09/09 11:54:32;;;;;;;9.38;4.72;;;28.60;51.60;;;;;;5030853;28;20049;-72
2021/09/09 11:57:12;;;;;;;10.27;3.17;;;29.00;50.80;;;;;;5007648;28;20038;-72
2021/09/09 11:59:54;;;;;;;5.45;2.85;;;29.20;49.60;;;;;;5018677;28;20030;-73
2021/09/09 12:02:32;;;;;;;7.47;3.80;;;29.10;48.00;;;;;;5021411;28;20124;-74
2021/09/09 12:05:08;;;;;;;8.60;3.40;;;29.30;47.80;;;;;;5021908;28;20057;-72
2021/09/09 12:07:35;;;;;;;7.22;3.35;;;29.30;48.60;;;;;;5024318;28;20049;-72
2021/09/09 12:10:10;;;;;;;9.18;4.05;;;28.80;49.40;;;;;;5019794;28;20121;-72
2021/09/09 12:12:36;;;;;;;7.75;3.65;;;28.60;50.30;;;;;;5023690;28;20033;-72
2021/09/09 12:15:10;;;;;;;7.50;3.45;;;28.80;50.00;;;;;;5028557;28;20400;-72
2021/09/09 12:17:37;;;;;;;9.00;3.97;;;29.00;49.80;;;;;;5042298;28;20045;-72
2021/09/09 12:20:07;;;;;;;9.13;3.67;;;29.20;49.00;;;;;;5027769;28;21119;-72
2021/09/09 12:22:42;;;;;;;7.57;3.42;;;29.40;48.90;;;;;;5027176;28;20032;-75
2021/09/09 12:25:20;;;;;;;6.90;3.30;;;29.50;48.20;;;;;;5025011;28;20128;-73
2021/09/09 12:28:10;;;;;;;6.20;3.00;;;29.80;46.90;;;;;;5022073;28;20049;-73
2021/09/09 12:30:38;;;;;;;7.13;3.65;;;30.10;46.60;;;;;;5024756;28;20030;-72
2021/09/09 12:33:14;;;;;;;6.75;3.13;;;30.00;47.10;;;;;;5020539;28;20033;-75